Logo AVAMET
Benvolgut visitant, si us plau, ingressa Recuperar contrasenya

Inforatge Castelló de la Plana Palau Festa

Dades diàries. Acumulats / Últims 30 dies disponibles

Data Temperatura (°C) Humitat rel. (%) Pressió rel. (hPa) Vent (km/h) Precipitació
Mínima Mitjana Màxima Amplitud
tèrmica
Mínima Mitjana Màxima Mínima Mitjana Màxima Predom. Mitjana Ràfega
màxima
Total
(mm)
Índex-n
Mínima Mitjana Màxima Mínima Mitjana Màxima n
0 a 1
P0 max
mm 5'
Dades mensuals acumulades fins l'últim dia disponible
07/2019 21,7 23,0 25,3 26,3 27,6 29,1 30,3 8,6 42 69 90 1.016 1.016 1.016   6,9 51,9 8,6
Dades anuals acumulades fins l'últim dia disponible
2019 2,3 12,9 25,3 16,7 12,7 20,7 35,9 33,6 17 63 94 1.016 1.016 1.016   7,7 79,6 76,6
Últims 30 dies disponibles
21-07-2019 24,6     26,7     28,9 4,3 63 75 84 1.016 1.016 1.016 ENE 8,5 33,9 0,0
20-07-2019 22,4     26,5     29,8 7,4 54 70 81 1.016 1.016 1.016 SE 5,5 25,9 0,0
19-07-2019 22,8     26,2     28,8 6,0 56 71 79 1.016 1.016 1.016 SE 5,5 29,6 0,0
18-07-2019 22,2     25,9     28,4 6,2 61 70 76 1.016 1.016 1.016 SSE 7,3 27,8 0,0
17-07-2019 23,6     26,1     28,5 4,9 53 66 73 1.016 1.016 1.016 SSE 6,2 29,6 0,0
16-07-2019 22,6     26,1     28,4 5,8 57 68 78 1.016 1.016 1.016 SE 7,7 37,0 0,0
15-07-2019 23,4     26,2     29,6 6,2 54 67 78 1.016 1.016 1.016 SSE 7,4 29,6 0,0
14-07-2019 23,0     25,8     28,3 5,3 64 73 83 1.016 1.016 1.016 SE 6,1 33,9 1,4
13-07-2019 25,3     27,1     30,3 5,0 42 63 81 1.016 1.016 1.016 ENE 8,4 27,8 0,0
12-07-2019 23,8     27,3     30,1 6,3 45 64 73 1.016 1.016 1.016 SE 6,2 25,9 0,0
11-07-2019 22,0     26,3     29,4 7,4 58 69 80 1.016 1.016 1.016 S 7,2 25,9 0,0
10-07-2019 22,4     25,3     27,6 5,2 58 69 80 1.016 1.016 1.016 S 7,9 32,2 0,0
09-07-2019 23,6     25,8     28,9 5,3 45 65 76 1.016 1.016 1.016 S 8,7 33,9 0,0
08-07-2019 23,2     25,7     28,4 5,2 61 73 82 1.016 1.016 1.016 SE 7,6 37,0 2,2
07-07-2019 23,5     26,5     29,8 6,3 63 76 87 1.016 1.016 1.016 SE 8,4 51,9 5,0
06-07-2019 23,1     26,6     29,6 6,5 70 78 86 1.016 1.016 1.016 SE 4,9 31,5 0,0
05-07-2019 22,7     26,4     29,6 6,9 58 72 85 1.016 1.016 1.016 SE 5,5 25,9 0,0
04-07-2019 22,7     26,7     29,8 7,1 47 59 83 1.016 1.016 1.016 SE 5,4 25,9 0,0
03-07-2019 21,8     26,4     29,5 7,7 43 61 72 1.016 1.016 1.016 SE 5,2 22,6 0,0
02-07-2019 22,9     26,1     29,2 6,3 53 68 82 1.016 1.016 1.016 E 7,4 24,1 0,0
01-07-2019 21,7     25,7     28,9 7,2 51 71 90 1.016 1.016 1.016 E 8,0 29,6 0,0
30-06-2019 23,1     26,3     29,4 6,3 52 64 88 1.016 1.016 1.016 ESE 5,5 22,6 0,0
29-06-2019 21,2     29,3     35,9 14,7 21 41 57 1.016 1.016 1.016 SSO 8,6 32,2 0,0
28-06-2019 20,6     27,2     32,4 11,8 40 61 89 1.016 1.016 1.016 SSE 5,6 27,8 0,0
27-06-2019 21,8     25,8     29,8 8,0 46 65 82 1.016 1.016 1.016 SE 6,3 27,8 0,0
26-06-2019 20,6     24,2     27,3 6,7 63 76 88 1.016 1.016 1.016 E 11,9 46,7 0,0
25-06-2019 20,7     23,1     25,9 5,2 70 79 87 1.016 1.016 1.016 ESE 9,8 45,0 0,0
24-06-2019 20,0     23,1     26,1 6,1 60 72 85 1.016 1.016 1.016 ESE 12,0 42,6 0,0
23-06-2019 19,1     23,0     26,6 7,5 55 74 84 1.016 1.016 1.016 SSE 5,9 24,1 0,0
22-06-2019 20,1     22,6     25,1 5,0 62 73 83 1.016 1.016 1.016 S 6,9 29,6 0,0
Últims 13 mesos disponibles
06/2019 12,8 18,9 23,1 22,4 20,7 25,8 35,9 23,1 41 64 79 1.016 1.016 1.016 S 8,1 59,6 0,0
05/2019 10,4 14,6 17,7 18,0 17,3 21,5 28,2 17,8 50 67 81 1.016 1.016 1.016 SE 7,8 53,7 13,0
04/2019 7,8 12,1 14,5 15,5 15,5 19,3 26,4 18,6 44 63 85 1.016 1.016 1.016 SSO 10,6 66,7 44,0
03/2019 7,7 10,4 13,2 14,5 13,4 18,8 25,2 17,5 41 59 78 1.016 1.016 1.016 S 7,0 53,7 10,4
02/2019 2,3 7,9 11,8 12,3 12,9 16,9 22,9 20,6 28 65 79 1.016 1.016 1.016 SSO 6,3 74,1 0,0
01/2019 3,7 7,2 10,4 11,6 12,7 16,5 22,5 18,8 37 57 78 1.016 1.016 1.016 SO 7,0 79,6 0,6
12/2018 6,6 10,0 12,7 13,6 14,1 18,0 24,2 17,6 51 69 83 1.016 1.016 1.016 SSO 4,1 68,5 7,2
11/2018 7,8 11,7 16,8 15,0 15,1 18,9 22,0 14,2 52 71 86 1.007 1.016 1.023 SO 6,3 48,3 89,4
10/2018 7,9 15,5 19,8 19,0 14,9 22,6 28,2 20,3 38 68 87 1.001 1.021 1.026 S 6,6 63,0 136,8
09/2018 18,0 21,2 23,8 24,4 24,6 27,4 30,7 12,7 52 73 82 1.014 1.022 1.025 6,4 50,0 66,2
08/2018 20,6 23,5 27,6 26,7 26,5 29,5 33,3 12,7 56 68 79 1.014 1.019 1.024 7,0 72,4 49,0
07/2018 19,8 23,2 24,8 26,3 26,1 29,1 34,3 14,5 53 70 77 1.012 1.017 1.022 7,2 45,0 4,8
06/2018 16,1 19,9 23,5 23,1 22,5 26,2 29,4 13,3 48 68 79 1.012 1.017 1.023 7,3 68,5 33,8
Tots els anys disponibles
Temperatura (°C)
Humitat relativa (%)
Velocitat del vent i ràfega màxima (km/h)
Direcció del vent (°)
Pressió (hPa)
Precipitació (mm)
Nota sobre les dades: s'avisa a l'usuari de la provisionalitat i no oficialitat d'aquestes dades
Logo AVAMET blanc
Web allotjada a Sollutia
Llicència de Creative CommonsLa web d'AVAMET i els seus continguts estan subjectes a una llicència de
Reconeixement - No Comercial - Compartir igual
Properes estacions: Altea - Club Nàutic d'Altea (Soci), Ares del Maestrat (Ajuntament Soci),      - - - - -      Últimes estacions: Catadau - Urb. Lloma Molina (Inforatge), Ontinyent - El Pilar (Soci), Asp - Poliesportiu (Soci) - - -